Aviation Digital Data Service (ADDS)

Output produced by METARs form (2032 UTC 06 May 2015)
found at http://aviationweather.gov/adds/metars/
 
KEWR 061932Z 0620/0724 07007KT P6SM BKN070 
     FM062100 11006KT P6SM BKN070 
     FM070000 13005KT P6SM SCT070 
     FM070200 VRB03KT P6SM FEW250 
     FM071400 17005KT P6SM FEW250 
     FM071800 18007KT P6SM SCT050 
     FM072000 15007KT P6SM SCT040